createdAt,value
2022-09-12T00:01:31.547Z,14.52
2022-09-12T00:03:34.464Z,9.70
2022-09-12T00:05:44.791Z,11.90
2022-09-12T00:07:47.396Z,11.63
2022-09-12T00:09:49.959Z,10.23
2022-09-12T00:11:52.534Z,12.68
2022-09-12T00:13:59.667Z,11.65
2022-09-12T00:16:02.502Z,13.23
2022-09-12T00:18:05.456Z,16.05
2022-09-12T00:20:09.562Z,11.43
2022-09-12T00:22:12.066Z,12.75
2022-09-12T00:24:14.628Z,13.65
2022-09-12T00:26:18.807Z,13.70
2022-09-12T00:28:21.344Z,13.55
2022-09-12T00:30:24.164Z,14.20
2022-09-12T00:32:26.802Z,14.23
2022-09-12T00:34:29.360Z,16.52
2022-09-12T00:36:31.931Z,12.70
2022-09-12T00:38:38.530Z,10.23
2022-09-12T00:40:42.834Z,13.10
2022-09-12T00:42:45.357Z,12.70
2022-09-12T00:44:51.254Z,14.45
2022-09-12T00:46:59.258Z,13.82
2022-09-12T00:49:14.247Z,13.40
2022-09-12T00:51:18.652Z,11.60
2022-09-12T00:53:21.641Z,16.10
2022-09-12T00:55:54.816Z,11.18
2022-09-12T00:58:01.988Z,12.85
2022-09-12T01:00:14.944Z,11.25
2022-09-12T01:02:18.073Z,8.10
2022-09-12T01:04:23.478Z,9.52
2022-09-12T01:06:29.667Z,10.32
2022-09-12T01:08:34.512Z,8.05
2022-09-12T01:10:40.508Z,13.18
2022-09-12T01:12:44.405Z,12.38
2022-09-12T01:14:46.977Z,9.25
2022-09-12T01:16:51.003Z,11.10
2022-09-12T01:19:27.321Z,9.90
2022-09-12T01:21:45.130Z,10.43
2022-09-12T01:24:12.483Z,13.70
2022-09-12T01:26:20.962Z,9.38
2022-09-12T01:28:44.229Z,9.77
2022-09-12T01:30:46.804Z,7.90
2022-09-12T01:33:07.870Z,8.98
2022-09-12T01:35:41.924Z,11.32
2022-09-12T01:37:58.999Z,9.52
2022-09-12T01:40:30.038Z,10.77
2022-09-12T01:42:41.159Z,13.73
2022-09-12T01:45:03.540Z,9.00
2022-09-12T01:47:19.654Z,9.07
2022-09-12T01:49:37.590Z,10.43
2022-09-12T01:51:45.686Z,10.27
2022-09-12T01:53:56.081Z,7.90
2022-09-12T01:56:22.882Z,10.40
2022-09-12T01:58:30.537Z,10.13
2022-09-12T02:00:38.177Z,8.45
2022-09-12T02:02:48.795Z,8.82
2022-09-12T02:05:09.111Z,9.60
2022-09-12T02:07:18.497Z,13.63
2022-09-12T02:09:26.245Z,10.90
2022-09-12T02:11:33.336Z,10.43
2022-09-12T02:14:02.018Z,7.40
2022-09-12T02:16:26.107Z,11.15
2022-09-12T02:18:32.412Z,9.68
2022-09-12T02:20:47.842Z,10.90
2022-09-12T02:22:56.009Z,7.28
2022-09-12T02:25:01.337Z,11.55
2022-09-12T02:27:39.680Z,10.68
2022-09-12T02:29:44.828Z,12.75
2022-09-12T02:31:53.515Z,11.43
2022-09-12T02:34:23.132Z,9.23
2022-09-12T02:36:25.629Z,7.35
2022-09-12T02:38:38.517Z,8.27
2022-09-12T02:40:41.737Z,9.35
2022-09-12T02:42:44.378Z,6.32
2022-09-12T02:44:47.273Z,10.18
2022-09-12T02:46:55.988Z,5.53
2022-09-12T02:48:58.925Z,5.63
2022-09-12T02:51:02.656Z,6.10
2022-09-12T02:53:08.436Z,6.90
2022-09-12T02:55:11.849Z,6.22
2022-09-12T02:57:22.641Z,13.90
2022-09-12T02:59:26.603Z,8.07
2022-09-12T03:01:50.612Z,6.35
2022-09-12T03:03:55.783Z,6.47
2022-09-12T03:06:01.307Z,6.75
2022-09-12T03:08:09.723Z,7.10
2022-09-12T03:10:35.128Z,4.65
2022-09-12T03:12:46.220Z,3.55
2022-09-12T03:14:54.436Z,5.35
2022-09-12T03:17:25.961Z,4.20
2022-09-12T03:19:57.815Z,3.47
2022-09-12T03:22:21.530Z,2.90
2022-09-12T03:24:38.714Z,5.43
2022-09-12T03:26:46.889Z,3.50
2022-09-12T03:28:50.476Z,3.45
2022-09-12T03:30:54.862Z,5.03
2022-09-12T03:32:57.527Z,8.90
2022-09-12T03:35:00.069Z,4.53
2022-09-12T03:37:02.934Z,4.68
2022-09-12T03:39:05.697Z,4.43
2022-09-12T03:41:08.365Z,3.72
2022-09-12T03:43:11.369Z,4.68
2022-09-12T03:45:13.942Z,5.15
2022-09-12T03:47:16.722Z,6.45
2022-09-12T03:49:19.633Z,3.20
2022-09-12T03:51:22.374Z,8.27
2022-09-12T03:53:25.043Z,6.25
2022-09-12T03:55:27.973Z,3.83
2022-09-12T03:57:30.566Z,8.38
2022-09-12T03:59:33.237Z,5.88
2022-09-12T04:01:35.788Z,5.30
2022-09-12T04:03:40.141Z,8.60
2022-09-12T04:05:48.044Z,5.88
2022-09-12T04:07:50.609Z,5.30
2022-09-12T04:09:53.612Z,3.90
2022-09-12T04:11:56.170Z,7.07
2022-09-12T04:13:58.865Z,4.65
2022-09-12T04:16:02.099Z,5.47
2022-09-12T04:18:06.054Z,9.18
2022-09-12T04:20:09.507Z,6.15
2022-09-12T04:22:12.121Z,3.35
2022-09-12T04:24:14.663Z,5.95
2022-09-12T04:26:18.847Z,6.63
2022-09-12T04:28:21.550Z,5.07
2022-09-12T04:30:24.261Z,6.22
2022-09-12T04:32:26.836Z,5.32
2022-09-12T04:34:31.763Z,6.05
2022-09-12T04:36:34.622Z,6.43
2022-09-12T04:38:37.876Z,7.15
2022-09-12T04:40:40.720Z,6.82
2022-09-12T04:42:43.482Z,6.70
2022-09-12T04:44:46.166Z,5.03
2022-09-12T04:46:49.052Z,6.28
2022-09-12T04:48:56.437Z,5.40
2022-09-12T04:51:17.844Z,6.97
2022-09-12T04:53:20.448Z,5.65
2022-09-12T04:55:25.484Z,6.35
2022-09-12T04:57:28.131Z,7.70
2022-09-12T04:59:30.605Z,5.97
2022-09-12T05:01:33.508Z,5.22
2022-09-12T05:03:41.795Z,4.63
2022-09-12T05:05:47.293Z,5.35
2022-09-12T05:07:49.879Z,5.25
2022-09-12T05:09:52.540Z,4.60
2022-09-12T05:12:10.450Z,5.35
2022-09-12T05:14:13.148Z,2.80
2022-09-12T05:16:17.383Z,4.60
2022-09-12T05:18:19.893Z,3.53
2022-09-12T05:20:22.495Z,3.00
2022-09-12T05:22:25.342Z,2.95
2022-09-12T05:24:28.147Z,2.05
2022-09-12T05:26:30.738Z,3.20
2022-09-12T05:28:36.292Z,4.28
2022-09-12T05:30:38.890Z,2.72
2022-09-12T05:32:41.406Z,2.30
2022-09-12T05:34:43.909Z,2.53
2022-09-12T05:36:46.487Z,4.50
2022-09-12T05:38:49.019Z,6.15
2022-09-12T05:40:52.503Z,5.93
2022-09-12T05:42:55.047Z,2.58
2022-09-12T05:44:57.648Z,1.77
2022-09-12T05:47:00.215Z,3.38
2022-09-12T05:49:07.806Z,4.45
2022-09-12T05:51:13.872Z,7.50
2022-09-12T05:53:16.364Z,1.95
2022-09-12T05:55:19.679Z,4.70
2022-09-12T05:57:22.315Z,2.05
2022-09-12T05:59:24.915Z,4.22
2022-09-12T06:01:29.218Z,3.85
2022-09-12T06:03:31.839Z,4.82
2022-09-12T06:05:34.935Z,4.50
2022-09-12T06:07:37.464Z,1.75
2022-09-12T06:09:39.983Z,3.15
2022-09-12T06:11:43.222Z,1.92
2022-09-12T06:13:46.170Z,4.63
2022-09-12T06:15:48.771Z,3.15
2022-09-12T06:17:51.611Z,3.35
2022-09-12T06:19:54.336Z,3.53
2022-09-12T06:21:57.218Z,3.00
2022-09-12T06:23:59.703Z,2.92
2022-09-12T06:26:04.423Z,2.78
2022-09-12T06:28:06.920Z,5.25
2022-09-12T06:30:09.941Z,3.10
2022-09-12T06:32:12.537Z,2.75
2022-09-12T06:34:16.181Z,2.08
2022-09-12T06:36:24.564Z,2.53
2022-09-12T06:38:27.075Z,3.42
2022-09-12T06:40:29.988Z,2.35
2022-09-12T06:42:33.264Z,2.92
2022-09-12T06:44:36.182Z,1.38
2022-09-12T06:46:38.780Z,3.05
2022-09-12T06:48:42.487Z,3.20
2022-09-12T06:50:56.610Z,4.00
2022-09-12T06:52:59.094Z,2.13
2022-09-12T06:55:01.646Z,3.42
2022-09-12T06:57:04.450Z,3.72
2022-09-12T06:59:06.967Z,3.35
2022-09-12T07:01:18.415Z,1.58
2022-09-12T07:03:20.957Z,2.50
2022-09-12T07:05:24.082Z,1.27
2022-09-12T07:07:26.837Z,1.77
2022-09-12T07:09:30.951Z,1.02
2022-09-12T07:11:36.694Z,2.58
2022-09-12T07:13:40.474Z,2.17
2022-09-12T07:15:43.002Z,1.17
2022-09-12T07:17:45.755Z,2.28
2022-09-12T07:19:48.266Z,5.18
2022-09-12T07:21:54.204Z,2.38
2022-09-12T07:23:59.323Z,0.88
2022-09-12T07:26:02.849Z,1.70
2022-09-12T07:28:05.330Z,1.23
2022-09-12T07:30:08.203Z,1.63
2022-09-12T07:32:12.300Z,2.05
2022-09-12T07:34:14.929Z,0.95
2022-09-12T07:36:20.345Z,3.13
2022-09-12T07:38:23.611Z,2.30
2022-09-12T07:40:26.081Z,1.40
2022-09-12T07:42:47.215Z,1.13
2022-09-12T07:44:54.051Z,1.73
2022-09-12T07:46:56.637Z,2.35
2022-09-12T07:49:01.154Z,1.75
2022-09-12T07:51:09.550Z,1.48
2022-09-12T07:53:12.270Z,1.00
2022-09-12T07:55:15.002Z,1.92
2022-09-12T07:57:17.641Z,1.77
2022-09-12T07:59:35.640Z,1.70
2022-09-12T08:01:43.310Z,2.90
2022-09-12T08:03:48.812Z,1.65
2022-09-12T08:05:51.329Z,1.17
2022-09-12T08:07:57.638Z,2.83
2022-09-12T08:10:00.661Z,1.85
2022-09-12T08:12:03.411Z,0.95
2022-09-12T08:14:06.102Z,1.30
2022-09-12T08:16:14.598Z,2.97
2022-09-12T08:18:17.142Z,3.22
2022-09-12T08:20:19.820Z,3.65
2022-09-12T08:22:22.710Z,3.25
2022-09-12T08:24:25.363Z,2.28
2022-09-12T08:26:28.484Z,2.35
2022-09-12T08:28:32.489Z,1.25
2022-09-12T08:30:35.129Z,1.83
2022-09-12T08:32:37.671Z,3.60
2022-09-12T08:34:40.207Z,1.10
2022-09-12T08:36:43.203Z,2.10
2022-09-12T08:38:47.636Z,3.80
2022-09-12T08:40:57.983Z,1.98
2022-09-12T08:43:14.641Z,1.60
2022-09-12T08:45:24.485Z,1.92
2022-09-12T08:47:32.122Z,2.65
2022-09-12T08:49:44.661Z,1.98
2022-09-12T08:51:48.114Z,2.55
2022-09-12T08:53:54.561Z,1.73
2022-09-12T08:56:00.083Z,1.75
2022-09-12T08:58:18.467Z,3.08
2022-09-12T09:00:21.814Z,2.92
2022-09-12T09:02:58.428Z,1.15
2022-09-12T09:05:31.840Z,4.65
2022-09-12T09:08:17.658Z,1.85
2022-09-12T09:11:12.429Z,3.75
2022-09-12T09:14:01.890Z,2.20
2022-09-12T09:16:21.786Z,5.95
2022-09-12T09:18:30.599Z,2.88
2022-09-12T09:20:53.230Z,1.88
2022-09-12T09:23:15.511Z,2.03
2022-09-12T09:25:25.881Z,3.00
2022-09-12T09:27:49.107Z,3.72
2022-09-12T09:29:54.972Z,3.20
2022-09-12T09:32:01.409Z,4.30
2022-09-12T09:34:13.872Z,2.10
2022-09-12T09:36:32.893Z,4.50
2022-09-12T09:38:35.473Z,4.00
2022-09-12T09:40:45.058Z,3.33
2022-09-12T09:43:20.464Z,2.20
2022-09-12T09:45:25.842Z,3.92
2022-09-12T09:47:28.781Z,3.67
2022-09-12T09:49:35.045Z,2.53
2022-09-12T09:51:40.572Z,3.00
2022-09-12T09:53:56.671Z,3.45
2022-09-12T09:56:02.884Z,3.28
2022-09-12T09:58:05.435Z,4.63
2022-09-12T10:00:30.752Z,3.47
2022-09-12T10:02:33.464Z,3.45
2022-09-12T10:04:41.576Z,5.40
2022-09-12T10:06:44.497Z,2.33
2022-09-12T10:08:48.717Z,3.22
2022-09-12T10:11:03.351Z,3.83
2022-09-12T10:13:43.635Z,3.05
2022-09-12T10:16:05.561Z,6.35
2022-09-12T10:18:08.202Z,3.42
2022-09-12T10:20:32.476Z,4.38
2022-09-12T10:22:34.976Z,6.22
2022-09-12T10:24:42.289Z,5.00
2022-09-12T10:26:47.761Z,4.75
2022-09-12T10:28:54.188Z,5.70
2022-09-12T10:30:57.118Z,5.82
2022-09-12T10:33:13.087Z,3.38
2022-09-12T10:35:24.320Z,8.75
2022-09-12T10:37:35.320Z,2.97
2022-09-12T10:39:39.094Z,5.85
2022-09-12T10:41:41.911Z,4.40
2022-09-12T10:43:45.438Z,3.83
2022-09-12T10:45:48.008Z,6.13
2022-09-12T10:47:52.033Z,5.10
2022-09-12T10:50:22.311Z,5.03
2022-09-12T10:52:25.985Z,14.60
2022-09-12T10:54:28.826Z,4.45
2022-09-12T10:56:36.190Z,4.40
2022-09-12T10:59:00.400Z,8.15
2022-09-12T11:01:45.407Z,3.50
2022-09-12T11:03:50.722Z,7.03
2022-09-12T11:06:00.726Z,4.63
2022-09-12T11:08:09.272Z,3.67
2022-09-12T11:10:36.781Z,5.72
2022-09-12T11:13:03.467Z,6.13
2022-09-12T11:15:33.801Z,5.65
2022-09-12T11:17:36.319Z,4.50
2022-09-12T11:19:57.438Z,4.65
2022-09-12T11:22:28.717Z,30.23
2022-09-12T11:24:48.934Z,6.53
2022-09-12T11:27:14.943Z,4.50
2022-09-12T11:29:38.390Z,4.90
2022-09-12T11:31:58.595Z,6.78
2022-09-12T11:34:09.234Z,5.25
2022-09-12T11:36:53.261Z,3.00
2022-09-12T11:39:21.740Z,4.78
2022-09-12T11:41:31.584Z,4.30
2022-09-12T11:43:43.193Z,7.40
2022-09-12T11:45:47.953Z,11.65
2022-09-12T11:47:55.671Z,5.40
2022-09-12T11:50:02.383Z,5.40
2022-09-12T11:52:14.585Z,7.72
2022-09-12T11:54:32.744Z,4.78
2022-09-12T11:56:39.152Z,6.43
2022-09-12T11:58:44.788Z,6.55
2022-09-12T12:00:54.339Z,5.80
2022-09-12T12:03:10.285Z,5.88
2022-09-12T12:05:24.956Z,5.47
2022-09-12T12:07:35.639Z,2.63
2022-09-12T12:09:52.861Z,2.95
2022-09-12T12:11:58.568Z,3.95
2022-09-12T12:14:02.588Z,9.00
2022-09-12T12:16:14.625Z,3.15
2022-09-12T12:18:28.044Z,4.07
2022-09-12T12:20:30.916Z,4.03
2022-09-12T12:22:33.889Z,3.05
2022-09-12T12:25:02.894Z,6.35
2022-09-12T12:27:25.819Z,4.05
2022-09-12T12:29:43.521Z,4.90
2022-09-12T12:32:04.466Z,2.47
2022-09-12T12:34:22.850Z,2.65
2022-09-12T12:36:37.462Z,1.75
2022-09-12T12:38:41.261Z,8.23
2022-09-12T12:40:43.819Z,2.50
2022-09-12T12:42:46.227Z,3.30
2022-09-12T12:44:51.591Z,2.53
2022-09-12T12:47:16.213Z,5.53
2022-09-12T12:49:28.385Z,2.95
2022-09-12T12:51:44.388Z,1.88
2022-09-12T12:53:47.592Z,2.53
2022-09-12T12:55:52.811Z,3.08
2022-09-12T12:58:07.052Z,2.08
2022-09-12T13:00:27.954Z,3.17
2022-09-12T13:02:37.530Z,4.00
2022-09-12T13:04:45.673Z,2.45
2022-09-12T13:06:57.446Z,3.00
2022-09-12T13:09:08.041Z,2.20
2022-09-12T13:11:28.610Z,6.30
2022-09-12T13:13:48.315Z,2.13
2022-09-12T13:15:52.525Z,6.78
2022-09-12T13:18:01.924Z,4.63
2022-09-12T13:20:29.625Z,5.00
2022-09-12T13:22:44.968Z,3.65
2022-09-12T13:24:49.381Z,3.03
2022-09-12T13:26:52.132Z,9.10
2022-09-12T13:29:16.656Z,3.97
2022-09-12T13:31:30.311Z,3.03
2022-09-12T13:33:43.207Z,3.33
2022-09-12T13:36:05.557Z,5.53
2022-09-12T13:38:26.429Z,11.25
2022-09-12T13:40:47.165Z,9.90
2022-09-12T13:42:53.767Z,7.57
2022-09-12T13:45:05.936Z,6.80
2022-09-12T13:47:15.325Z,4.07
2022-09-12T13:49:23.214Z,3.25
2022-09-12T13:51:32.587Z,3.53
2022-09-12T13:53:46.954Z,4.72
2022-09-12T13:55:56.606Z,2.90
2022-09-12T13:58:05.653Z,2.38
2022-09-12T14:00:19.834Z,7.00
2022-09-12T14:02:25.168Z,4.47
2022-09-12T14:04:46.502Z,4.50
2022-09-12T14:06:51.992Z,6.43
2022-09-12T14:09:01.574Z,6.90
2022-09-12T14:11:09.935Z,5.00
2022-09-12T14:13:25.322Z,11.80
2022-09-12T14:15:31.693Z,7.38
2022-09-12T14:17:36.534Z,5.47
2022-09-12T14:19:40.014Z,2.67
2022-09-12T14:21:42.623Z,6.55
2022-09-12T14:23:48.255Z,6.10
2022-09-12T14:25:52.280Z,7.18
2022-09-12T14:27:57.137Z,5.35
2022-09-12T14:30:22.952Z,2.00
2022-09-12T14:32:25.895Z,2.63
2022-09-12T14:34:29.318Z,8.98
2022-09-12T14:36:36.909Z,3.22
2022-09-12T14:38:50.242Z,3.65
2022-09-12T14:41:01.192Z,4.45
2022-09-12T14:43:03.889Z,5.25
2022-09-12T14:45:17.225Z,4.63
2022-09-12T14:47:25.903Z,6.25
2022-09-12T14:49:36.489Z,4.18
2022-09-12T14:51:47.146Z,2.85
2022-09-12T14:53:52.006Z,5.45
2022-09-12T14:56:11.869Z,3.28
2022-09-12T14:58:17.355Z,1.98
2022-09-12T15:00:24.986Z,3.35
2022-09-12T15:02:27.824Z,4.00
2022-09-12T15:04:48.335Z,4.05
2022-09-12T15:06:51.000Z,3.33
2022-09-12T15:08:55.101Z,5.00
2022-09-12T15:10:58.845Z,2.53
2022-09-12T15:13:10.032Z,7.57
2022-09-12T15:15:18.958Z,2.67
2022-09-12T15:17:21.576Z,4.47
2022-09-12T15:19:24.102Z,3.60
2022-09-12T15:21:26.846Z,4.82
2022-09-12T15:23:36.867Z,1.70
2022-09-12T15:25:39.404Z,1.88
2022-09-12T15:27:42.595Z,2.50
2022-09-12T15:29:45.248Z,4.00
2022-09-12T15:31:51.364Z,1.60
2022-09-12T15:33:56.369Z,3.70
2022-09-12T15:36:01.085Z,3.30
2022-09-12T15:38:10.793Z,2.67
2022-09-12T15:40:15.882Z,3.28
2022-09-12T15:42:29.700Z,2.83
2022-09-12T15:44:33.603Z,2.45
2022-09-12T15:46:37.995Z,2.35
2022-09-12T15:48:41.667Z,3.55
2022-09-12T15:50:46.034Z,2.72
2022-09-12T15:52:50.028Z,3.45
2022-09-12T15:54:53.708Z,1.95
2022-09-12T15:56:57.143Z,3.20
2022-09-12T15:59:00.630Z,1.50
2022-09-12T16:01:05.519Z,3.95
2022-09-12T16:03:28.047Z,3.92
2022-09-12T16:05:31.957Z,1.98
2022-09-12T16:07:35.757Z,2.58
2022-09-12T16:09:39.562Z,3.08
2022-09-12T16:11:45.475Z,2.65
2022-09-12T16:13:49.399Z,2.72
2022-09-12T16:15:57.743Z,3.67
2022-09-12T16:18:00.563Z,6.78
2022-09-12T16:20:03.618Z,2.05
2022-09-12T16:22:06.403Z,2.22
2022-09-12T16:24:08.875Z,2.60
2022-09-12T16:26:11.455Z,2.53
2022-09-12T16:28:14.140Z,1.77
2022-09-12T16:30:16.720Z,2.38
2022-09-12T16:32:19.183Z,1.58
2022-09-12T16:34:21.876Z,3.20
2022-09-12T16:36:24.717Z,2.33
2022-09-12T16:38:27.430Z,2.25
2022-09-12T16:40:31.726Z,2.15
2022-09-12T16:42:34.387Z,4.03
2022-09-12T16:44:36.957Z,4.18
2022-09-12T16:46:39.533Z,3.67
2022-09-12T16:48:51.808Z,1.08
2022-09-12T16:51:01.066Z,3.75
2022-09-12T16:53:03.683Z,3.85
2022-09-12T16:55:06.932Z,3.42
2022-09-12T16:57:09.531Z,3.50
2022-09-12T16:59:16.317Z,1.67
2022-09-12T17:01:21.827Z,3.03
2022-09-12T17:03:24.354Z,2.35
2022-09-12T17:05:27.961Z,2.00
2022-09-12T17:07:30.643Z,2.13
2022-09-12T17:09:33.282Z,7.72
2022-09-12T17:11:38.962Z,2.13
2022-09-12T17:14:03.319Z,2.67
2022-09-12T17:16:07.045Z,2.08
2022-09-12T17:18:09.491Z,2.92
2022-09-12T17:20:12.005Z,2.45
2022-09-12T17:22:14.548Z,3.47
2022-09-12T17:24:18.098Z,3.22
2022-09-12T17:26:20.957Z,2.85
2022-09-12T17:28:23.770Z,3.10
2022-09-12T17:30:26.380Z,4.30
2022-09-12T17:32:28.888Z,1.80
2022-09-12T17:34:31.550Z,3.17
2022-09-12T17:36:34.388Z,3.60
2022-09-12T17:38:39.862Z,2.75
2022-09-12T17:40:59.062Z,3.50
2022-09-12T17:43:02.541Z,1.50
2022-09-12T17:45:05.651Z,1.85
2022-09-12T17:47:08.167Z,3.42
2022-09-12T17:49:18.722Z,1.85
2022-09-12T17:51:25.455Z,1.95
2022-09-12T17:53:27.968Z,5.20
2022-09-12T17:55:34.223Z,3.22
2022-09-12T17:57:37.239Z,1.55
2022-09-12T17:59:40.228Z,1.90
2022-09-12T18:02:01.400Z,1.42
2022-09-12T18:04:03.978Z,3.85
2022-09-12T18:06:06.756Z,3.38
2022-09-12T18:08:09.307Z,3.80
2022-09-12T18:10:12.191Z,3.55
2022-09-12T18:12:15.793Z,3.25
2022-09-12T18:14:19.011Z,2.22
2022-09-12T18:16:21.561Z,1.10
2022-09-12T18:18:24.117Z,2.00
2022-09-12T18:20:26.777Z,3.97
2022-09-12T18:22:29.429Z,2.17
2022-09-12T18:24:32.735Z,1.45
2022-09-12T18:26:35.452Z,2.00
2022-09-12T18:28:40.632Z,3.15
2022-09-12T18:30:43.108Z,1.73
2022-09-12T18:32:46.140Z,3.13
2022-09-12T18:34:48.588Z,0.90
2022-09-12T18:36:54.413Z,1.70
2022-09-12T18:38:58.768Z,1.45
2022-09-12T18:41:03.437Z,3.17
2022-09-12T18:43:06.240Z,1.02
2022-09-12T18:45:09.578Z,1.55
2022-09-12T18:47:12.046Z,1.23
2022-09-12T18:49:14.535Z,1.10
2022-09-12T18:51:25.951Z,1.60
2022-09-12T18:53:28.420Z,1.65
2022-09-12T18:55:32.256Z,1.23
2022-09-12T18:57:35.297Z,1.30
2022-09-12T18:59:37.887Z,2.15
2022-09-12T19:01:40.563Z,1.42
2022-09-12T19:03:43.889Z,1.10
2022-09-12T19:05:46.477Z,1.98
2022-09-12T19:07:49.133Z,1.63
2022-09-12T19:09:51.813Z,2.00
2022-09-12T19:11:54.323Z,1.90
2022-09-12T19:13:57.233Z,2.70
2022-09-12T19:16:01.225Z,1.02
2022-09-12T19:18:03.861Z,1.98
2022-09-12T19:20:06.784Z,1.08
2022-09-12T19:22:09.444Z,2.58
2022-09-12T19:24:13.730Z,2.80
2022-09-12T19:26:18.227Z,1.40
2022-09-12T19:28:20.675Z,1.30
2022-09-12T19:30:23.518Z,1.83
2022-09-12T19:32:26.022Z,1.85
2022-09-12T19:34:28.490Z,2.47
2022-09-12T19:36:44.967Z,2.63
2022-09-12T19:38:48.836Z,1.73
2022-09-12T19:40:58.713Z,1.85
2022-09-12T19:43:01.138Z,2.17
2022-09-12T19:45:04.082Z,0.60
2022-09-12T19:47:06.648Z,0.77
2022-09-12T19:49:11.064Z,3.22
2022-09-12T19:51:15.661Z,1.15
2022-09-12T19:53:18.727Z,1.30
2022-09-12T19:55:22.352Z,1.70
2022-09-12T19:57:24.835Z,0.82
2022-09-12T19:59:27.370Z,1.63
2022-09-12T20:01:29.955Z,3.45
2022-09-12T20:03:32.601Z,1.73
2022-09-12T20:05:38.496Z,1.30
2022-09-12T20:07:44.559Z,1.45
2022-09-12T20:09:47.324Z,1.92
2022-09-12T20:11:50.139Z,2.97
2022-09-12T20:13:52.723Z,1.55
2022-09-12T20:15:55.231Z,1.35
2022-09-12T20:17:58.386Z,2.97
2022-09-12T20:20:00.881Z,2.05
2022-09-12T20:22:03.544Z,1.33
2022-09-12T20:24:15.917Z,1.73
2022-09-12T20:26:20.478Z,2.63
2022-09-12T20:28:23.185Z,2.70
2022-09-12T20:30:25.820Z,3.50
2022-09-12T20:32:29.252Z,1.70
2022-09-12T20:34:31.786Z,2.10
2022-09-12T20:36:34.678Z,2.78
2022-09-12T20:38:37.209Z,2.65
2022-09-12T20:40:39.907Z,1.95
2022-09-12T20:42:42.530Z,3.17
2022-09-12T20:44:44.996Z,3.05
2022-09-12T20:46:47.610Z,2.50
2022-09-12T20:48:51.523Z,1.80
2022-09-12T20:50:54.020Z,3.17
2022-09-12T20:52:56.448Z,2.70
2022-09-12T20:54:58.981Z,1.77
2022-09-12T20:57:01.503Z,3.58
2022-09-12T20:59:04.917Z,2.55
2022-09-12T21:01:09.079Z,2.05
2022-09-12T21:03:11.870Z,5.10
2022-09-12T21:05:14.542Z,2.78
2022-09-12T21:07:17.373Z,2.72
2022-09-12T21:09:19.947Z,1.98
2022-09-12T21:11:22.370Z,2.63
2022-09-12T21:13:24.996Z,4.03
2022-09-12T21:15:27.512Z,4.57
2022-09-12T21:17:29.971Z,6.18
2022-09-12T21:19:32.453Z,2.97
2022-09-12T21:21:35.117Z,2.95
2022-09-12T21:23:37.994Z,2.70
2022-09-12T21:25:40.548Z,3.40
2022-09-12T21:27:43.121Z,2.90
2022-09-12T21:29:45.581Z,2.88
2022-09-12T21:31:48.148Z,1.80
2022-09-12T21:33:51.502Z,2.95
2022-09-12T21:35:54.394Z,4.43
2022-09-12T21:37:57.450Z,3.13
2022-09-12T21:40:00.032Z,3.00
2022-09-12T21:42:02.575Z,3.55
2022-09-12T21:44:05.332Z,1.90
2022-09-12T21:46:09.032Z,3.60
2022-09-12T21:48:12.394Z,2.60
2022-09-12T21:50:15.343Z,2.22
2022-09-12T21:52:17.793Z,2.70
2022-09-12T21:54:20.248Z,1.70
2022-09-12T21:56:23.465Z,2.30
2022-09-12T21:58:25.950Z,4.05
2022-09-12T22:00:28.598Z,3.60
2022-09-12T22:02:31.107Z,3.88
2022-09-12T22:04:33.550Z,3.45
2022-09-12T22:06:36.690Z,8.00
2022-09-12T22:08:39.384Z,4.85
2022-09-12T22:10:42.063Z,2.70
2022-09-12T22:12:46.471Z,1.70
2022-09-12T22:14:49.435Z,2.72
2022-09-12T22:16:52.049Z,2.45
2022-09-12T22:18:54.599Z,4.55
2022-09-12T22:21:05.771Z,2.13
2022-09-12T22:23:28.363Z,3.00
2022-09-12T22:25:31.054Z,2.40
2022-09-12T22:27:33.591Z,3.83
2022-09-12T22:29:37.322Z,5.82
2022-09-12T22:31:40.480Z,2.42
2022-09-12T22:33:43.251Z,2.47
2022-09-12T22:35:45.742Z,2.55
2022-09-12T22:37:48.232Z,2.58
2022-09-12T22:39:51.032Z,4.97
2022-09-12T22:41:53.580Z,2.42
2022-09-12T22:43:57.297Z,2.85
2022-09-12T22:46:00.574Z,2.95
2022-09-12T22:48:06.217Z,2.88
2022-09-12T22:50:11.552Z,3.75
2022-09-12T22:52:16.161Z,3.10
2022-09-12T22:54:19.022Z,5.70
2022-09-12T22:56:21.835Z,2.92
2022-09-12T22:58:24.420Z,6.25
2022-09-12T23:00:29.920Z,4.68
2022-09-12T23:02:32.418Z,7.97
2022-09-12T23:04:34.995Z,7.63
2022-09-12T23:06:37.455Z,6.75
2022-09-12T23:08:40.360Z,11.00
2022-09-12T23:10:44.162Z,6.78
2022-09-12T23:12:46.642Z,7.55
2022-09-12T23:14:49.191Z,4.68
2022-09-12T23:16:51.680Z,5.47
2022-09-12T23:18:54.236Z,6.47
2022-09-12T23:21:01.389Z,8.60
2022-09-12T23:23:04.225Z,4.75
2022-09-12T23:25:07.750Z,7.18
2022-09-12T23:27:10.293Z,7.00
2022-09-12T23:29:12.746Z,7.28
2022-09-12T23:31:17.180Z,4.97
2022-09-12T23:33:20.053Z,6.75
2022-09-12T23:35:22.501Z,9.25
2022-09-12T23:37:26.787Z,6.55
2022-09-12T23:39:29.298Z,8.90
2022-09-12T23:41:32.083Z,7.53
2022-09-12T23:43:34.922Z,10.80
2022-09-12T23:45:37.476Z,6.97
2022-09-12T23:47:39.965Z,8.15
2022-09-12T23:49:42.442Z,8.27
2022-09-12T23:51:44.974Z,15.05
2022-09-12T23:53:47.769Z,9.80
2022-09-12T23:55:50.477Z,8.98
2022-09-12T23:57:54.388Z,10.75
2022-09-12T23:59:56.833Z,10.88
